createdAt,value
2022-11-05T00:00:04.492Z,88.90
2022-11-05T00:00:54.977Z,90.10
2022-11-05T00:01:45.548Z,88.50
2022-11-05T00:02:35.780Z,89.70
2022-11-05T00:03:26.862Z,88.40
2022-11-05T00:04:17.133Z,90.10
2022-11-05T00:05:07.454Z,90.00
2022-11-05T00:05:58.221Z,88.10
2022-11-05T00:06:48.765Z,88.00
2022-11-05T00:07:48.122Z,88.60
2022-11-05T00:08:38.633Z,88.40
2022-11-05T00:09:29.647Z,89.30
2022-11-05T00:10:05.158Z,90.20
2022-11-05T00:10:38.638Z,88.40
2022-11-05T00:11:16.851Z,90.00
2022-11-05T00:12:08.638Z,90.40
2022-11-05T00:12:58.892Z,90.40
2022-11-05T00:13:49.577Z,88.00
2022-11-05T00:14:40.157Z,90.20
2022-11-05T00:15:30.653Z,86.40
2022-11-05T00:16:21.253Z,88.60
2022-11-05T00:16:53.024Z,88.40
2022-11-05T00:17:24.760Z,88.00
2022-11-05T00:17:56.509Z,88.00
2022-11-05T00:18:28.335Z,88.60
2022-11-05T00:19:10.022Z,87.90
2022-11-05T00:19:41.773Z,88.00
2022-11-05T00:20:13.677Z,89.50
2022-11-05T00:20:45.526Z,88.60
2022-11-05T00:21:36.120Z,88.00
2022-11-05T00:22:26.715Z,88.50
2022-11-05T00:23:21.082Z,88.40
2022-11-05T00:24:11.455Z,88.50
2022-11-05T00:25:01.693Z,89.60
2022-11-05T00:25:33.736Z,89.90
2022-11-05T00:26:08.362Z,88.00
2022-11-05T00:26:40.083Z,88.50
2022-11-05T00:27:11.831Z,87.90
2022-11-05T00:27:48.725Z,88.00
2022-11-05T00:28:20.481Z,88.40
2022-11-05T00:28:52.290Z,88.10
2022-11-05T00:29:24.112Z,88.10
2022-11-05T00:29:55.900Z,88.00
2022-11-05T00:30:30.103Z,88.90
2022-11-05T00:31:05.005Z,90.10
2022-11-05T00:31:36.712Z,88.10
2022-11-05T00:32:08.525Z,90.20
2022-11-05T00:32:40.646Z,88.90
2022-11-05T00:33:12.857Z,88.40
2022-11-05T00:33:44.757Z,87.90
2022-11-05T00:34:16.808Z,89.10
2022-11-05T00:34:48.569Z,90.20
2022-11-05T00:35:22.237Z,88.90
2022-11-05T00:35:54.047Z,88.90
2022-11-05T00:36:25.757Z,88.60
2022-11-05T00:36:57.514Z,88.00
2022-11-05T00:37:29.734Z,89.20
2022-11-05T00:38:01.480Z,89.90
2022-11-05T00:38:33.890Z,88.50
2022-11-05T00:39:06.085Z,90.20
2022-11-05T00:39:37.849Z,87.50
2022-11-05T00:40:10.506Z,87.90
2022-11-05T00:40:42.424Z,88.50
2022-11-05T00:41:14.254Z,89.80
2022-11-05T00:42:06.012Z,88.40
2022-11-05T00:42:59.027Z,88.50
2022-11-05T00:43:49.158Z,88.50
2022-11-05T00:44:39.365Z,88.50
2022-11-05T00:45:11.307Z,90.30
2022-11-05T00:45:43.622Z,88.90
2022-11-05T00:46:15.447Z,88.50
2022-11-05T00:46:47.226Z,88.40
2022-11-05T00:47:37.572Z,88.00
2022-11-05T00:48:28.007Z,90.10
2022-11-05T00:49:18.553Z,90.10
2022-11-05T00:49:50.301Z,88.60
2022-11-05T00:50:22.477Z,88.00
2022-11-05T00:50:54.258Z,88.90
2022-11-05T00:51:26.009Z,90.40
2022-11-05T00:52:16.331Z,89.20
2022-11-05T00:52:55.951Z,89.50
2022-11-05T00:53:27.805Z,88.60
2022-11-05T00:53:59.549Z,88.00
2022-11-05T00:54:31.259Z,88.70
2022-11-05T00:55:03.178Z,88.60
2022-11-05T00:55:40.790Z,88.20
2022-11-05T00:56:12.575Z,88.70
2022-11-05T00:56:44.288Z,88.90
2022-11-05T00:57:15.989Z,89.00
2022-11-05T00:57:47.705Z,90.30
2022-11-05T00:58:21.582Z,90.00
2022-11-05T00:58:53.332Z,88.60
2022-11-05T00:59:25.054Z,88.10
2022-11-05T00:59:56.771Z,88.60
2022-11-05T01:00:31.286Z,88.10
2022-11-05T01:01:04.466Z,90.00
2022-11-05T01:01:36.270Z,88.60
2022-11-05T01:02:08.195Z,89.30
2022-11-05T01:02:40.117Z,89.70
2022-11-05T01:03:14.839Z,89.10
2022-11-05T01:03:51.439Z,88.60
2022-11-05T01:04:23.710Z,88.10
2022-11-05T01:04:55.517Z,89.10
2022-11-05T01:05:27.838Z,89.50
2022-11-05T01:06:13.065Z,89.40
2022-11-05T01:06:44.796Z,88.50
2022-11-05T01:07:16.541Z,89.10
2022-11-05T01:07:48.272Z,89.50
2022-11-05T01:08:22.429Z,88.50
2022-11-05T01:08:56.081Z,88.50
2022-11-05T01:09:27.784Z,88.50
2022-11-05T01:09:59.587Z,89.90
2022-11-05T01:10:32.171Z,88.60
2022-11-05T01:11:10.469Z,88.50
2022-11-05T01:11:42.910Z,88.50
2022-11-05T01:12:14.631Z,88.00
2022-11-05T01:12:46.503Z,89.30
2022-11-05T01:13:20.996Z,88.60
2022-11-05T01:13:52.739Z,88.70
2022-11-05T01:14:24.483Z,88.80
2022-11-05T01:14:56.209Z,89.80
2022-11-05T01:15:28.020Z,90.30
2022-11-05T01:16:07.048Z,88.70
2022-11-05T01:16:39.944Z,88.60
2022-11-05T01:17:11.649Z,88.60
2022-11-05T01:17:43.449Z,88.60
2022-11-05T01:18:15.200Z,88.90
2022-11-05T01:18:46.990Z,89.50
2022-11-05T01:19:18.720Z,88.20
2022-11-05T01:19:50.884Z,88.80
2022-11-05T01:20:22.705Z,90.40
2022-11-05T01:20:54.518Z,88.90
2022-11-05T01:21:26.331Z,88.30
2022-11-05T01:21:58.119Z,88.20
2022-11-05T01:22:29.915Z,88.80
2022-11-05T01:23:01.749Z,89.70
2022-11-05T01:23:33.519Z,88.90
2022-11-05T01:24:05.582Z,88.80
2022-11-05T01:24:37.327Z,88.80
2022-11-05T01:25:10.167Z,88.30
2022-11-05T01:25:42.773Z,88.80
2022-11-05T01:26:14.628Z,88.70
2022-11-05T01:26:46.399Z,89.70
2022-11-05T01:27:18.200Z,89.40
2022-11-05T01:27:50.000Z,89.90
2022-11-05T01:28:21.835Z,88.30
2022-11-05T01:28:55.404Z,88.30
2022-11-05T01:29:27.188Z,88.80
2022-11-05T01:29:58.949Z,88.30
2022-11-05T01:30:31.286Z,89.90
2022-11-05T01:31:03.133Z,89.70
2022-11-05T01:31:34.987Z,88.80
2022-11-05T01:32:06.777Z,90.40
2022-11-05T01:32:38.753Z,88.40
2022-11-05T01:33:10.979Z,88.30
2022-11-05T01:33:42.961Z,89.40
2022-11-05T01:34:14.660Z,89.60
2022-11-05T01:34:46.413Z,88.30
2022-11-05T01:35:19.046Z,88.40
2022-11-05T01:35:51.720Z,88.80
2022-11-05T01:36:23.454Z,88.50
2022-11-05T01:36:55.239Z,90.30
2022-11-05T01:37:26.976Z,89.00
2022-11-05T01:37:58.763Z,88.50
2022-11-05T01:38:30.444Z,89.80
2022-11-05T01:39:02.185Z,89.20
2022-11-05T01:39:33.941Z,90.20
2022-11-05T01:40:08.047Z,90.60
2022-11-05T01:40:43.109Z,89.00
2022-11-05T01:41:14.812Z,88.50
2022-11-05T01:41:46.610Z,89.00
2022-11-05T01:42:26.276Z,90.30
2022-11-05T01:42:58.026Z,89.80
2022-11-05T01:43:54.464Z,89.10
2022-11-05T01:44:56.687Z,89.00
2022-11-05T01:45:28.984Z,89.00
2022-11-05T01:46:01.101Z,89.10
2022-11-05T01:46:36.503Z,90.10
2022-11-05T01:47:36.760Z,90.30
2022-11-05T01:48:22.126Z,89.00
2022-11-05T01:49:02.683Z,89.10
2022-11-05T01:49:34.981Z,89.10
2022-11-05T01:50:27.359Z,88.70
2022-11-05T01:51:11.217Z,89.30
2022-11-05T01:51:45.752Z,90.30
2022-11-05T01:52:19.121Z,89.20
2022-11-05T01:52:57.948Z,90.40
2022-11-05T01:53:42.688Z,90.70
2022-11-05T01:54:18.895Z,89.20
2022-11-05T01:54:51.065Z,90.20
2022-11-05T01:55:28.633Z,89.30
2022-11-05T01:56:09.424Z,90.00
2022-11-05T01:56:46.433Z,89.20
2022-11-05T01:57:18.624Z,90.50
2022-11-05T01:57:54.755Z,88.90
2022-11-05T01:58:32.462Z,89.30
2022-11-05T01:59:10.634Z,89.30
2022-11-05T01:59:48.383Z,90.30
2022-11-05T02:00:20.633Z,89.30
2022-11-05T02:00:53.774Z,90.00
2022-11-05T02:01:25.910Z,89.70
2022-11-05T02:01:58.244Z,88.80
2022-11-05T02:02:31.349Z,90.10
2022-11-05T02:03:03.763Z,88.80
2022-11-05T02:03:36.272Z,90.50
2022-11-05T02:04:12.279Z,90.50
2022-11-05T02:04:49.326Z,90.70
2022-11-05T02:05:21.194Z,90.40
2022-11-05T02:05:56.841Z,89.50
2022-11-05T02:06:32.139Z,90.40
2022-11-05T02:07:07.338Z,89.90
2022-11-05T02:07:40.389Z,90.00
2022-11-05T02:08:41.291Z,89.60
2022-11-05T02:09:20.721Z,89.40
2022-11-05T02:10:02.290Z,89.40
2022-11-05T02:10:34.191Z,89.40
2022-11-05T02:11:05.940Z,89.90
2022-11-05T02:11:37.702Z,89.00
2022-11-05T02:12:10.785Z,90.30
2022-11-05T02:12:45.936Z,90.80
2022-11-05T02:13:17.680Z,89.70
2022-11-05T02:13:50.295Z,89.10
2022-11-05T02:14:22.015Z,89.50
2022-11-05T02:14:53.774Z,89.80
2022-11-05T02:15:51.036Z,89.10
2022-11-05T02:16:43.744Z,89.70
2022-11-05T02:17:42.266Z,91.00
2022-11-05T02:18:28.868Z,89.60
2022-11-05T02:19:26.068Z,89.90
2022-11-05T02:20:17.452Z,89.60
2022-11-05T02:21:20.627Z,89.70
2022-11-05T02:22:10.916Z,89.70
2022-11-05T02:22:59.718Z,89.80
2022-11-05T02:23:40.599Z,89.80
2022-11-05T02:24:42.461Z,89.70
2022-11-05T02:25:42.134Z,89.90
2022-11-05T02:26:32.487Z,89.80
2022-11-05T02:27:19.529Z,89.70
2022-11-05T02:28:14.697Z,89.90
2022-11-05T02:28:46.464Z,90.00
2022-11-05T02:29:50.682Z,90.90
2022-11-05T02:30:47.696Z,89.90
2022-11-05T02:31:35.956Z,89.90
2022-11-05T02:32:46.321Z,90.50
2022-11-05T02:33:23.785Z,89.90
2022-11-05T02:34:08.585Z,90.10
2022-11-05T02:35:01.335Z,90.90
2022-11-05T02:36:10.465Z,90.00
2022-11-05T02:37:05.174Z,90.00
2022-11-05T02:37:41.383Z,89.50
2022-11-05T02:38:36.320Z,90.00
2022-11-05T02:39:20.037Z,90.20
2022-11-05T02:40:16.737Z,90.00
2022-11-05T02:41:23.856Z,90.60
2022-11-05T02:42:24.346Z,90.00
2022-11-05T02:43:18.116Z,90.20
2022-11-05T02:44:18.517Z,90.00
2022-11-05T02:45:12.049Z,90.90
2022-11-05T02:46:03.431Z,90.00
2022-11-05T02:46:47.117Z,90.00
2022-11-05T02:47:36.988Z,90.00
2022-11-05T02:48:37.359Z,90.00
2022-11-05T02:49:31.465Z,90.00
2022-11-05T02:50:09.096Z,90.00
2022-11-05T02:51:11.792Z,90.00
2022-11-05T02:51:58.487Z,90.00
2022-11-05T02:52:43.078Z,90.10
2022-11-05T02:53:29.883Z,90.10
2022-11-05T02:54:13.644Z,90.10
2022-11-05T02:54:58.026Z,90.10
2022-11-05T02:55:41.882Z,90.10
2022-11-05T02:56:35.264Z,90.10
2022-11-05T02:57:07.395Z,91.00
2022-11-05T02:57:45.614Z,90.20
2022-11-05T02:58:17.372Z,90.20
2022-11-05T02:58:49.364Z,90.10
2022-11-05T02:59:21.108Z,90.70
2022-11-05T03:00:07.788Z,90.80
2022-11-05T03:00:48.995Z,90.30
2022-11-05T03:01:20.796Z,90.10
2022-11-05T03:01:53.896Z,90.40
2022-11-05T03:02:25.904Z,90.10
2022-11-05T03:02:57.824Z,90.50
2022-11-05T03:03:42.879Z,91.20
2022-11-05T03:04:18.350Z,90.10
2022-11-05T03:04:50.124Z,90.10
2022-11-05T03:05:34.235Z,90.10
2022-11-05T03:06:21.318Z,90.10
2022-11-05T03:07:10.985Z,89.80
2022-11-05T03:07:56.022Z,90.00
2022-11-05T03:08:47.203Z,90.10
2022-11-05T03:10:03.960Z,90.10
2022-11-05T03:11:12.962Z,90.10
2022-11-05T03:12:02.723Z,90.10
2022-11-05T03:12:57.046Z,90.10
2022-11-05T03:13:42.145Z,90.40
2022-11-05T03:14:28.738Z,89.90
2022-11-05T03:15:21.845Z,90.40
2022-11-05T03:16:00.159Z,90.10
2022-11-05T03:16:56.001Z,90.10
2022-11-05T03:17:38.178Z,90.70
2022-11-05T03:18:44.404Z,90.40
2022-11-05T03:19:47.833Z,90.10
2022-11-05T03:20:35.806Z,90.10
2022-11-05T03:21:17.650Z,90.10
2022-11-05T03:21:57.639Z,90.20
2022-11-05T03:22:38.139Z,90.10
2022-11-05T03:23:26.762Z,90.40
2022-11-05T03:24:13.899Z,90.40
2022-11-05T03:24:53.192Z,90.10
2022-11-05T03:25:28.601Z,90.80
2022-11-05T03:26:30.454Z,90.10
2022-11-05T03:27:10.856Z,90.10
2022-11-05T03:27:48.128Z,90.10
2022-11-05T03:28:24.301Z,90.70
2022-11-05T03:29:29.144Z,90.10
2022-11-05T03:30:08.208Z,90.10
2022-11-05T03:30:42.263Z,90.10
2022-11-05T03:31:17.253Z,90.80
2022-11-05T03:31:52.926Z,90.10
2022-11-05T03:32:29.664Z,90.10
2022-11-05T03:33:09.141Z,90.40
2022-11-05T03:33:44.088Z,89.90
2022-11-05T03:34:21.055Z,90.10
2022-11-05T03:35:00.384Z,90.70
2022-11-05T03:35:39.292Z,90.10
2022-11-05T03:36:20.413Z,90.30
2022-11-05T03:36:55.646Z,91.10
2022-11-05T03:37:32.604Z,90.60
2022-11-05T03:38:11.924Z,90.10
2022-11-05T03:38:49.417Z,90.80
2022-11-05T03:39:32.615Z,90.10
2022-11-05T03:40:08.751Z,90.10
2022-11-05T03:40:45.436Z,90.10
2022-11-05T03:41:19.275Z,90.10
2022-11-05T03:41:53.625Z,90.80
2022-11-05T03:42:32.203Z,90.10
2022-11-05T03:43:08.333Z,90.10
2022-11-05T03:43:46.813Z,90.10
2022-11-05T03:44:27.378Z,90.30
2022-11-05T03:45:03.062Z,91.00
2022-11-05T03:45:43.902Z,90.10
2022-11-05T03:46:38.617Z,91.30
2022-11-05T03:47:15.489Z,90.70
2022-11-05T03:47:52.395Z,90.10
2022-11-05T03:48:28.676Z,90.20
2022-11-05T03:49:04.158Z,90.10
2022-11-05T03:49:40.179Z,90.10
2022-11-05T03:50:23.922Z,90.10
2022-11-05T03:50:59.637Z,90.10
2022-11-05T03:52:10.038Z,90.50
2022-11-05T03:52:53.286Z,90.50
2022-11-05T03:53:48.116Z,90.10
2022-11-05T03:54:20.194Z,90.10
2022-11-05T03:54:52.155Z,90.70
2022-11-05T03:55:38.612Z,90.60
2022-11-05T03:56:24.002Z,90.10
2022-11-05T03:57:15.086Z,90.30
2022-11-05T03:57:53.603Z,91.10
2022-11-05T03:58:27.108Z,90.40
2022-11-05T03:59:01.664Z,90.10
2022-11-05T03:59:40.838Z,90.10
2022-11-05T04:00:13.635Z,90.10
2022-11-05T04:00:45.584Z,90.10
2022-11-05T04:01:18.124Z,90.10
2022-11-05T04:01:50.386Z,90.80
2022-11-05T04:02:25.883Z,90.30
2022-11-05T04:02:57.824Z,90.00
2022-11-05T04:03:36.064Z,90.10
2022-11-05T04:04:09.293Z,90.80
2022-11-05T04:04:41.716Z,90.30
2022-11-05T04:05:13.793Z,90.50
2022-11-05T04:06:06.131Z,90.50
2022-11-05T04:06:56.375Z,90.60
2022-11-05T04:07:46.572Z,90.10
2022-11-05T04:08:37.154Z,90.10
2022-11-05T04:09:39.807Z,90.70
2022-11-05T04:10:30.362Z,90.10
2022-11-05T04:11:20.910Z,90.50
2022-11-05T04:12:11.320Z,90.00
2022-11-05T04:13:01.871Z,90.00
2022-11-05T04:13:34.124Z,90.40
2022-11-05T04:14:05.848Z,90.10
2022-11-05T04:14:39.329Z,90.50
2022-11-05T04:15:11.089Z,90.10
2022-11-05T04:16:01.376Z,91.00
2022-11-05T04:16:51.541Z,90.50
2022-11-05T04:17:23.300Z,90.00
2022-11-05T04:17:58.656Z,90.00
2022-11-05T04:18:30.388Z,89.70
2022-11-05T04:19:02.208Z,90.30
2022-11-05T04:19:57.381Z,90.10
2022-11-05T04:20:47.472Z,90.00
2022-11-05T04:21:37.868Z,91.10
2022-11-05T04:22:28.407Z,90.10
2022-11-05T04:23:24.466Z,90.00
2022-11-05T04:24:08.585Z,90.00
2022-11-05T04:24:40.315Z,90.00
2022-11-05T04:25:13.652Z,90.00
2022-11-05T04:25:45.771Z,90.00
2022-11-05T04:26:23.128Z,89.60
2022-11-05T04:26:54.889Z,90.70
2022-11-05T04:27:26.665Z,90.00
2022-11-05T04:28:00.508Z,90.00
2022-11-05T04:28:52.190Z,91.10
2022-11-05T04:29:42.746Z,91.10
2022-11-05T04:30:19.301Z,90.30
2022-11-05T04:30:51.127Z,90.20
2022-11-05T04:31:22.928Z,90.70
2022-11-05T04:31:54.775Z,90.10
2022-11-05T04:32:26.521Z,90.60
2022-11-05T04:33:18.510Z,90.30
2022-11-05T04:33:50.360Z,91.10
2022-11-05T04:34:22.369Z,90.90
2022-11-05T04:34:54.092Z,90.10
2022-11-05T04:35:30.967Z,90.10
2022-11-05T04:36:02.886Z,90.40
2022-11-05T04:36:34.624Z,90.90
2022-11-05T04:37:06.402Z,90.30
2022-11-05T04:37:38.126Z,90.30
2022-11-05T04:38:14.622Z,90.10
2022-11-05T04:38:46.379Z,90.60
2022-11-05T04:39:19.804Z,90.70
2022-11-05T04:39:51.562Z,90.50
2022-11-05T04:40:23.894Z,90.20
2022-11-05T04:41:13.126Z,90.80
2022-11-05T04:41:47.838Z,90.10
2022-11-05T04:42:19.738Z,90.30
2022-11-05T04:42:53.110Z,90.40
2022-11-05T04:43:24.884Z,90.10
2022-11-05T04:43:56.633Z,90.10
2022-11-05T04:44:28.359Z,91.20
2022-11-05T04:45:00.130Z,90.90
2022-11-05T04:45:36.852Z,90.70
2022-11-05T04:46:09.012Z,90.20
2022-11-05T04:46:41.943Z,90.50
2022-11-05T04:47:13.657Z,90.10
2022-11-05T04:47:45.378Z,90.70
2022-11-05T04:48:17.210Z,90.10
2022-11-05T04:48:48.933Z,90.10
2022-11-05T04:49:20.686Z,90.10
2022-11-05T04:49:52.408Z,90.30
2022-11-05T04:50:24.387Z,90.20
2022-11-05T04:50:56.137Z,90.20
2022-11-05T04:51:27.886Z,90.60
2022-11-05T04:51:59.598Z,91.10
2022-11-05T04:52:31.327Z,91.20
2022-11-05T04:53:03.166Z,90.60
2022-11-05T04:53:35.170Z,90.10
2022-11-05T04:54:06.914Z,90.50
2022-11-05T04:54:38.611Z,90.40
2022-11-05T04:55:10.547Z,90.60
2022-11-05T04:55:42.294Z,90.30
2022-11-05T04:56:23.273Z,90.40
2022-11-05T04:56:55.315Z,90.80
2022-11-05T04:57:27.131Z,91.20
2022-11-05T04:57:59.297Z,91.00
2022-11-05T04:58:31.049Z,90.20
2022-11-05T04:59:02.892Z,90.30
2022-11-05T04:59:34.648Z,90.40
2022-11-05T05:00:08.088Z,90.60
2022-11-05T05:00:39.922Z,90.10
2022-11-05T05:01:14.268Z,90.40
2022-11-05T05:01:46.129Z,90.10
2022-11-05T05:02:17.974Z,90.30
2022-11-05T05:02:50.188Z,90.20
2022-11-05T05:03:21.973Z,90.60
2022-11-05T05:03:54.859Z,90.20
2022-11-05T05:04:26.612Z,91.20
2022-11-05T05:04:58.428Z,90.20
2022-11-05T05:05:30.558Z,90.30
2022-11-05T05:06:03.910Z,90.50
2022-11-05T05:06:36.405Z,90.20
2022-11-05T05:07:08.142Z,90.50
2022-11-05T05:07:41.203Z,90.20
2022-11-05T05:08:12.959Z,90.20
2022-11-05T05:08:46.516Z,90.50
2022-11-05T05:09:18.225Z,90.80
2022-11-05T05:09:50.023Z,90.30
2022-11-05T05:10:21.792Z,90.40
2022-11-05T05:10:54.699Z,90.30
2022-11-05T05:11:26.442Z,91.00
2022-11-05T05:11:58.172Z,91.20
2022-11-05T05:12:29.913Z,90.20
2022-11-05T05:13:02.659Z,90.20
2022-11-05T05:13:34.866Z,90.70
2022-11-05T05:14:06.628Z,90.20
2022-11-05T05:14:38.499Z,90.30
2022-11-05T05:15:10.406Z,90.20
2022-11-05T05:15:42.200Z,90.60
2022-11-05T05:16:21.120Z,90.30
2022-11-05T05:16:52.844Z,91.20
2022-11-05T05:17:25.217Z,90.40
2022-11-05T05:17:57.023Z,89.50
2022-11-05T05:18:29.061Z,90.20
2022-11-05T05:19:00.805Z,90.20
2022-11-05T05:19:52.542Z,90.90
2022-11-05T05:20:42.793Z,90.20
2022-11-05T05:21:34.286Z,90.20
2022-11-05T05:22:06.108Z,90.80
2022-11-05T05:22:37.965Z,90.20
2022-11-05T05:23:10.946Z,90.50
2022-11-05T05:23:43.393Z,90.40
2022-11-05T05:24:18.551Z,90.40
2022-11-05T05:24:52.885Z,91.10
2022-11-05T05:25:25.004Z,90.30
2022-11-05T05:26:00.473Z,90.40
2022-11-05T05:26:32.293Z,91.00
2022-11-05T05:27:04.081Z,90.30
2022-11-05T05:27:35.923Z,90.70
2022-11-05T05:28:07.675Z,90.90
2022-11-05T05:28:39.479Z,90.60
2022-11-05T05:29:11.987Z,90.90
2022-11-05T05:29:43.747Z,90.30
2022-11-05T05:30:15.804Z,90.90
2022-11-05T05:30:47.522Z,90.30
2022-11-05T05:31:19.817Z,90.30
2022-11-05T05:31:51.520Z,90.30
2022-11-05T05:32:24.506Z,90.80
2022-11-05T05:32:56.224Z,91.40
2022-11-05T05:33:28.843Z,90.40
2022-11-05T05:34:00.746Z,90.40
2022-11-05T05:34:32.527Z,91.20
2022-11-05T05:35:04.464Z,90.40
2022-11-05T05:35:36.255Z,90.40
2022-11-05T05:36:11.478Z,90.80
2022-11-05T05:36:43.511Z,90.40
2022-11-05T05:37:15.248Z,91.30
2022-11-05T05:37:47.034Z,90.50
2022-11-05T05:38:18.766Z,90.60
2022-11-05T05:38:50.993Z,90.40
2022-11-05T05:39:22.737Z,90.40
2022-11-05T05:39:54.558Z,91.30
2022-11-05T05:40:26.340Z,90.40
2022-11-05T05:40:59.804Z,90.40
2022-11-05T05:41:31.624Z,90.90
2022-11-05T05:42:03.569Z,90.50
2022-11-05T05:42:40.183Z,90.40
2022-11-05T05:43:14.540Z,90.40
2022-11-05T05:43:46.489Z,90.70
2022-11-05T05:44:18.393Z,90.40
2022-11-05T05:44:50.200Z,90.40
2022-11-05T05:45:22.002Z,90.40
2022-11-05T05:45:53.752Z,90.50
2022-11-05T05:46:25.550Z,90.40
2022-11-05T05:46:57.257Z,90.90
2022-11-05T05:47:29.223Z,90.80
2022-11-05T05:48:00.950Z,91.20
2022-11-05T05:48:33.132Z,91.60
2022-11-05T05:49:09.596Z,91.40
2022-11-05T05:49:42.900Z,90.50
2022-11-05T05:50:14.649Z,90.80
2022-11-05T05:50:46.385Z,90.50
2022-11-05T05:51:19.677Z,90.50
2022-11-05T05:51:51.437Z,90.60
2022-11-05T05:52:23.172Z,90.50
2022-11-05T05:52:54.960Z,90.50
2022-11-05T05:53:26.709Z,91.50
2022-11-05T05:53:58.559Z,90.50
2022-11-05T05:54:33.454Z,90.50
2022-11-05T05:55:06.996Z,91.20
2022-11-05T05:55:38.712Z,90.60
2022-11-05T05:56:11.052Z,91.30
2022-11-05T05:56:44.357Z,90.80
2022-11-05T05:57:16.095Z,90.50
2022-11-05T05:57:47.827Z,90.60
2022-11-05T05:58:19.635Z,91.10
2022-11-05T05:58:51.720Z,90.50
2022-11-05T05:59:23.912Z,90.60
2022-11-05T05:59:55.650Z,90.80
2022-11-05T06:00:27.393Z,91.00
2022-11-05T06:01:06.881Z,91.40
2022-11-05T06:01:38.985Z,90.50
2022-11-05T06:02:12.558Z,91.00
2022-11-05T06:02:44.466Z,90.60
2022-11-05T06:03:16.244Z,90.50
2022-11-05T06:03:48.933Z,90.70
2022-11-05T06:04:20.833Z,90.50
2022-11-05T06:04:52.592Z,90.50
2022-11-05T06:05:24.350Z,90.60
2022-11-05T06:06:04.384Z,90.70
2022-11-05T06:06:36.251Z,90.50
2022-11-05T06:07:08.040Z,89.10
2022-11-05T06:07:40.220Z,90.60
2022-11-05T06:08:12.060Z,91.60
2022-11-05T06:08:43.824Z,91.50
2022-11-05T06:09:15.799Z,90.60
2022-11-05T06:09:47.591Z,90.60
2022-11-05T06:10:19.398Z,90.60
2022-11-05T06:10:51.970Z,90.70
2022-11-05T06:11:25.298Z,90.60
2022-11-05T06:11:57.064Z,91.00
2022-11-05T06:12:31.568Z,91.20
2022-11-05T06:13:03.442Z,91.10
2022-11-05T06:13:37.248Z,91.10
2022-11-05T06:14:13.106Z,90.60
2022-11-05T06:14:44.810Z,91.00
2022-11-05T06:15:16.775Z,91.10
2022-11-05T06:15:48.512Z,90.70
2022-11-05T06:16:20.460Z,90.70
2022-11-05T06:16:52.208Z,91.80
2022-11-05T06:17:24.053Z,91.60
2022-11-05T06:17:55.806Z,90.70
2022-11-05T06:18:27.616Z,91.50
2022-11-05T06:18:59.328Z,91.00
2022-11-05T06:19:31.123Z,90.70
2022-11-05T06:20:02.982Z,91.10
2022-11-05T06:20:34.815Z,90.70
2022-11-05T06:21:14.097Z,90.70
2022-11-05T06:21:45.815Z,91.40
2022-11-05T06:22:17.750Z,91.70
2022-11-05T06:22:56.787Z,91.30
2022-11-05T06:23:31.408Z,91.70
2022-11-05T06:24:06.147Z,91.40
2022-11-05T06:24:37.879Z,90.70
2022-11-05T06:25:10.106Z,90.90
2022-11-05T06:25:41.851Z,91.50
2022-11-05T06:26:16.597Z,90.70
2022-11-05T06:26:48.318Z,91.00
2022-11-05T06:27:20.030Z,91.50
2022-11-05T06:27:52.948Z,91.10
2022-11-05T06:28:24.717Z,91.10
2022-11-05T06:28:56.496Z,91.70
2022-11-05T06:29:28.199Z,91.40
2022-11-05T06:29:59.934Z,91.10
2022-11-05T06:30:31.630Z,91.50
2022-11-05T06:31:04.551Z,90.80
2022-11-05T06:31:36.308Z,90.80
2022-11-05T06:32:08.029Z,90.80
2022-11-05T06:32:39.836Z,91.20
2022-11-05T06:33:11.953Z,90.80
2022-11-05T06:33:43.998Z,90.90
2022-11-05T06:34:15.730Z,90.80
2022-11-05T06:34:47.475Z,91.30
2022-11-05T06:35:19.397Z,90.90
2022-11-05T06:35:51.811Z,91.60
2022-11-05T06:36:23.531Z,91.80
2022-11-05T06:36:55.259Z,90.80
2022-11-05T06:37:27.772Z,91.80
2022-11-05T06:38:02.213Z,91.70
2022-11-05T06:38:36.264Z,90.90
2022-11-05T06:39:12.285Z,90.80
2022-11-05T06:39:44.332Z,91.50
2022-11-05T06:40:16.186Z,91.00
2022-11-05T06:40:47.898Z,90.80
2022-11-05T06:41:19.706Z,90.80
2022-11-05T06:42:16.493Z,91.20
2022-11-05T06:42:43.405Z,91.80
2022-11-05T06:43:15.394Z,90.80
2022-11-05T06:43:47.211Z,91.40
2022-11-05T06:44:18.924Z,90.90
2022-11-05T06:44:50.772Z,90.90
2022-11-05T06:45:22.560Z,91.10
2022-11-05T06:45:54.999Z,91.00
2022-11-05T06:46:26.743Z,90.90
2022-11-05T06:46:59.060Z,90.90
2022-11-05T06:47:31.282Z,90.90
2022-11-05T06:48:03.024Z,91.00
2022-11-05T06:48:35.302Z,91.50
2022-11-05T06:49:07.922Z,91.80
2022-11-05T06:49:39.698Z,90.90
2022-11-05T06:50:11.622Z,91.50
2022-11-05T06:50:46.535Z,91.60
2022-11-05T06:51:18.580Z,90.80
2022-11-05T06:51:53.637Z,91.00
2022-11-05T06:52:27.146Z,90.90
2022-11-05T06:53:01.081Z,91.70
2022-11-05T06:53:33.506Z,91.90
2022-11-05T06:54:05.359Z,90.90
2022-11-05T06:54:37.111Z,90.80
2022-11-05T06:55:09.145Z,90.90
2022-11-05T06:55:41.204Z,90.90
2022-11-05T06:56:13.032Z,91.20
2022-11-05T06:56:44.877Z,90.90
2022-11-05T06:57:16.690Z,90.90
2022-11-05T06:57:48.391Z,92.00
2022-11-05T06:58:20.160Z,91.70
2022-11-05T06:58:52.005Z,91.10
2022-11-05T06:59:23.759Z,91.10
2022-11-05T07:00:00.564Z,90.90
2022-11-05T07:00:34.164Z,91.20
2022-11-05T07:01:10.677Z,91.70
2022-11-05T07:01:42.649Z,91.20
2022-11-05T07:02:14.628Z,90.80
2022-11-05T07:02:47.148Z,90.90
2022-11-05T07:03:18.992Z,91.20
2022-11-05T07:03:50.768Z,90.90
2022-11-05T07:04:22.747Z,90.90
2022-11-05T07:04:54.497Z,91.50
2022-11-05T07:05:26.232Z,90.90
2022-11-05T07:06:00.699Z,91.90
2022-11-05T07:06:36.870Z,91.60
2022-11-05T07:07:09.165Z,90.90
2022-11-05T07:07:42.876Z,91.30
2022-11-05T07:08:14.719Z,90.80
2022-11-05T07:08:46.582Z,91.50
2022-11-05T07:09:18.361Z,91.60
2022-11-05T07:09:52.552Z,91.80
2022-11-05T07:10:24.291Z,91.80
2022-11-05T07:10:56.087Z,90.90
2022-11-05T07:11:27.830Z,90.90
2022-11-05T07:11:59.745Z,91.10
2022-11-05T07:12:31.517Z,91.10
2022-11-05T07:13:07.824Z,91.30
2022-11-05T07:13:40.349Z,91.00
2022-11-05T07:14:12.055Z,91.30
2022-11-05T07:14:43.825Z,91.50
2022-11-05T07:15:15.645Z,91.50
2022-11-05T07:15:47.449Z,90.90
2022-11-05T07:16:19.196Z,91.10
2022-11-05T07:16:53.426Z,91.40
2022-11-05T07:17:25.248Z,91.50
2022-11-05T07:18:01.681Z,91.20
2022-11-05T07:18:33.437Z,92.10
2022-11-05T07:19:05.155Z,91.20
2022-11-05T07:19:36.924Z,91.30
2022-11-05T07:20:09.373Z,91.10
2022-11-05T07:20:43.262Z,90.90
2022-11-05T07:21:15.378Z,91.70
2022-11-05T07:21:48.611Z,91.20
2022-11-05T07:22:20.409Z,90.90
2022-11-05T07:22:52.195Z,91.00
2022-11-05T07:23:23.967Z,91.00
2022-11-05T07:23:55.910Z,91.70
2022-11-05T07:24:27.713Z,91.00
2022-11-05T07:24:59.488Z,91.30
2022-11-05T07:25:33.443Z,91.00
2022-11-05T07:26:05.341Z,90.90
2022-11-05T07:26:37.060Z,90.90
2022-11-05T07:27:09.272Z,91.80
2022-11-05T07:27:41.364Z,90.90
2022-11-05T07:28:14.376Z,91.00
2022-11-05T07:28:46.147Z,91.70
2022-11-05T07:29:17.887Z,91.30
2022-11-05T07:29:49.611Z,92.00
2022-11-05T07:30:21.435Z,90.90
2022-11-05T07:30:53.967Z,91.60
2022-11-05T07:31:25.710Z,91.30
2022-11-05T07:31:57.399Z,91.00
2022-11-05T07:32:29.112Z,90.40
2022-11-05T07:33:00.966Z,91.50
2022-11-05T07:33:36.545Z,91.30
2022-11-05T07:34:08.597Z,91.10
2022-11-05T07:34:40.448Z,91.40
2022-11-05T07:35:12.190Z,91.50
2022-11-05T07:35:43.981Z,91.00
2022-11-05T07:36:15.690Z,91.50
2022-11-05T07:36:47.492Z,91.00
2022-11-05T07:37:19.298Z,91.10
2022-11-05T07:37:53.983Z,91.10
2022-11-05T07:38:25.768Z,91.00
2022-11-05T07:39:00.384Z,91.90
2022-11-05T07:39:32.547Z,91.10
2022-11-05T07:40:05.352Z,91.30
2022-11-05T07:40:37.128Z,91.10
2022-11-05T07:41:08.844Z,91.10
2022-11-05T07:41:40.622Z,91.10
2022-11-05T07:42:13.835Z,91.50
2022-11-05T07:42:51.688Z,91.00
2022-11-05T07:43:23.456Z,91.10
2022-11-05T07:43:55.192Z,91.20
2022-11-05T07:44:27.087Z,91.70
2022-11-05T07:44:58.816Z,91.30
2022-11-05T07:45:31.202Z,91.70
2022-11-05T07:46:02.976Z,91.10
2022-11-05T07:46:34.775Z,90.90
2022-11-05T07:47:06.532Z,91.00
2022-11-05T07:47:39.717Z,90.90
2022-11-05T07:48:11.441Z,90.90
2022-11-05T07:48:43.119Z,90.90
2022-11-05T07:49:14.880Z,91.60
2022-11-05T07:49:46.598Z,91.00
2022-11-05T07:50:21.186Z,91.00